Impacts METAR Board INFO
IDs:

KIAD - Washington/Dulles In, VA, US

Updated at: 0346 UTC 19 Feb 2018
Potential Impact None Slight Moderate High
Time18/15Z 18/16Z 18/17Z 18/18Z 18/19Z 18/20Z 18/21Z 18/22Z 18/23Z 19/00Z 19/01Z 19/02Z 19/03Z
VIS10 10 10 10 10 10 10 10 10 10 10 10 10
CIG40 48 -- 250 250 250 250 -- -- -- 250 250 --
CoverBKNBKNSCTBKNBKNBKNBKNSCTSCTFEWBKNBKNFEW
FltCatVFRVFRVFRVFRVFRVFRVFRVFRVFRVFRVFRVFRVFR
WX--------------------------
WDir01702802702900280040100110110130
WSpd0 4 3 4 9 3 6 0 5 4 5 5 5
WGst-- -- -- -- -- -- -- -- -- -- -- -- --
Raw hourly METARs
KIAD 181452Z COR 00000KT 10SM FEW030 BKN040 03/02 A3038 RMK AO2 SLP290 I3000 T00280017 53050 $
KIAD 181552Z 17004KT 10SM FEW030 BKN048 04/02 A3040 RMK AO2 SLP296 T00440017 $
KIAD 181652Z 28003KT 10SM FEW030 SCT049 SCT250 07/M01 A3042 RMK AO2 SLP303 T00721006 $
KIAD 181752Z 27004KT 10SM SCT046 BKN250 08/M01 A3042 RMK AO2 SLP302 I6000 T00831006 10083 21006 50012 $
KIAD 181852Z 29009KT 10SM FEW046 BKN250 08/M01 A3039 RMK AO2 SLP294 T00831006 $
KIAD 181952Z VRB03KT 10SM FEW048 BKN250 09/M02 A3039 RMK AO2 SLP294 T00891017 $
KIAD 182052Z 28006KT 10SM FEW045 BKN250 10/M02 A3041 RMK AO2 SLP297 T01001017 55003 $
KIAD 182152Z 00000KT 10SM FEW045 SCT250 09/M02 A3041 RMK AO2 SLP300 T00941022 $
KIAD 182252Z 04005KT 10SM SCT250 06/M01 A3041 RMK AO2 SLP300 T00611011 $
KIAD 182352Z 10004KT 10SM FEW250 04/M01 A3043 RMK AO2 SLP306 T00391006 10100 20028 53008 $
KIAD 190052Z 11005KT 10SM FEW150 BKN250 04/M02 A3042 RMK AO2 SLP303 T00391017 $
KIAD 190152Z 11005KT 10SM BKN250 04/M02 A3044 RMK AO2 SLP310 T00441017
KIAD 190252Z 13005KT 10SM FEW150 FEW250 04/M01 A3047 RMK AO2 SLP320 T00391006 53014